Sitka, South Dakota
Current Conditions -  °F | °C
As of 10:52 PM on Wednesday 22 Oct 2014 (Local Time) from KMBG Reporting Station
Clear Clear  
Wind Chill: 45°   Ceiling: Unl
Heat Index: 48°   Visibility: 10mi
Dew Point: 37°   Wind: 7mph
Humidity: 66%   Direction: 320°NW
Pressure: 29.94"   Gusts: NA
Location:  45.4184°N, 100.09°W
Report Text: KMBG 230352Z AUTO 32006KT 10SM CLR 09/03 A2994 RMK AO2 SLP141 T00890028
Loading
Personal Weather Stations






























Interactive Weather Map New forecast layout! Learn more

10-Day Weather Forecast

Advertisements
Track Severe Weather on mobile